createdAt,value
2023-07-12T00:02:02.999Z,53.25
2023-07-12T00:05:05.312Z,53.28
2023-07-12T00:08:16.233Z,53.04
2023-07-12T00:11:21.074Z,53.16
2023-07-12T00:14:22.656Z,53.16
2023-07-12T00:17:24.273Z,53.17
2023-07-12T00:20:33.546Z,53.18
2023-07-12T00:23:35.133Z,53.17
2023-07-12T00:26:37.883Z,53.16
2023-07-12T00:29:39.612Z,53.04
2023-07-12T00:32:41.609Z,53.06
2023-07-12T00:35:43.361Z,53.12
2023-07-12T00:38:45.075Z,52.99
2023-07-12T00:42:09.610Z,52.94
2023-07-12T00:45:13.232Z,53.01
2023-07-12T00:48:15.732Z,53.01
2023-07-12T00:51:30.886Z,53.10
2023-07-12T00:54:54.118Z,53.03
2023-07-12T00:57:55.849Z,53.06
2023-07-12T01:00:59.618Z,53.28
2023-07-12T01:04:03.640Z,53.35
2023-07-12T01:07:05.429Z,53.43
2023-07-12T01:10:08.794Z,53.45
2023-07-12T01:13:11.603Z,53.25
2023-07-12T01:16:17.893Z,53.31
2023-07-12T01:19:20.328Z,53.20
2023-07-12T01:22:22.015Z,53.22
2023-07-12T01:25:33.740Z,53.26
2023-07-12T01:28:35.352Z,53.22
2023-07-12T01:31:40.444Z,53.28
2023-07-12T01:34:42.161Z,53.18
2023-07-12T01:37:43.868Z,53.28
2023-07-12T01:40:45.443Z,53.31
2023-07-12T01:43:47.280Z,53.36
2023-07-12T01:46:49.070Z,53.40
2023-07-12T01:49:50.693Z,53.40
2023-07-12T01:52:52.313Z,53.52
2023-07-12T01:55:55.983Z,53.61
2023-07-12T01:58:57.669Z,53.59
2023-07-12T02:01:59.402Z,53.83
2023-07-12T02:05:01.213Z,53.82
2023-07-12T02:08:03.006Z,54.03
2023-07-12T02:11:04.775Z,53.96
2023-07-12T02:14:06.470Z,53.97
2023-07-12T02:17:09.316Z,54.18
2023-07-12T02:20:12.515Z,54.25
2023-07-12T02:23:14.433Z,54.19
2023-07-12T02:26:16.069Z,54.20
2023-07-12T02:29:17.888Z,54.26
2023-07-12T02:32:21.434Z,54.21
2023-07-12T02:35:28.317Z,54.17
2023-07-12T02:38:29.897Z,54.26
2023-07-12T02:41:31.578Z,54.17
2023-07-12T02:44:33.134Z,54.34
2023-07-12T02:47:35.371Z,54.21
2023-07-12T02:50:37.115Z,54.21
2023-07-12T02:53:40.430Z,54.10
2023-07-12T02:56:43.086Z,54.06
2023-07-12T02:59:44.737Z,54.08
2023-07-12T03:02:46.336Z,54.16
2023-07-12T03:05:47.983Z,54.16
2023-07-12T03:08:49.741Z,54.18
2023-07-12T03:11:51.389Z,53.98
2023-07-12T03:14:53.284Z,54.00
2023-07-12T03:17:54.948Z,54.05
2023-07-12T03:21:01.518Z,54.05
2023-07-12T03:24:03.481Z,54.11
2023-07-12T03:27:05.644Z,54.29
2023-07-12T03:30:07.906Z,53.91
2023-07-12T03:33:09.534Z,54.12
2023-07-12T03:36:11.343Z,54.07
2023-07-12T03:39:13.271Z,54.13
2023-07-12T03:42:14.920Z,53.94
2023-07-12T03:45:16.620Z,54.12
2023-07-12T03:48:18.562Z,54.27
2023-07-12T03:51:23.225Z,54.34
2023-07-12T03:54:24.925Z,54.59
2023-07-12T03:57:26.698Z,54.61
2023-07-12T04:00:28.442Z,54.56
2023-07-12T04:03:30.815Z,54.55
2023-07-12T04:06:33.175Z,54.66
2023-07-12T04:09:34.873Z,54.63
2023-07-12T04:12:36.681Z,54.75
2023-07-12T04:15:38.554Z,54.84
2023-07-12T04:18:40.267Z,54.91
2023-07-12T04:21:41.938Z,54.85
2023-07-12T04:24:48.288Z,54.96
2023-07-12T04:27:49.932Z,54.77
2023-07-12T04:30:51.696Z,54.73
2023-07-12T04:33:53.440Z,54.78
2023-07-12T04:36:55.045Z,54.79
2023-07-12T04:39:57.285Z,54.77
2023-07-12T04:42:58.974Z,54.98
2023-07-12T04:46:01.052Z,55.03
2023-07-12T04:49:02.595Z,55.14
2023-07-12T04:52:05.149Z,55.18
2023-07-12T04:55:21.821Z,55.38
2023-07-12T04:58:24.033Z,55.27
2023-07-12T05:01:25.808Z,55.53
2023-07-12T05:04:27.905Z,55.44
2023-07-12T05:07:31.814Z,55.55
2023-07-12T05:10:33.776Z,55.50
2023-07-12T05:13:35.417Z,55.58
2023-07-12T05:16:37.671Z,55.64
2023-07-12T05:19:39.327Z,55.37
2023-07-12T05:22:42.355Z,55.20
2023-07-12T05:25:54.600Z,55.53
2023-07-12T05:28:57.026Z,55.45
2023-07-12T05:31:58.712Z,55.39
2023-07-12T05:35:00.710Z,55.44
2023-07-12T05:38:03.152Z,55.39
2023-07-12T05:41:05.029Z,55.18
2023-07-12T05:44:06.710Z,55.05
2023-07-12T05:47:08.406Z,55.18
2023-07-12T05:50:12.736Z,55.15
2023-07-12T05:53:14.380Z,55.05
2023-07-12T05:56:16.005Z,54.92
2023-07-12T05:59:19.373Z,54.83
2023-07-12T06:02:21.221Z,55.05
2023-07-12T06:05:22.915Z,54.96
2023-07-12T06:08:25.960Z,55.11
2023-07-12T06:11:27.587Z,55.36
2023-07-12T06:14:29.327Z,55.46
2023-07-12T06:17:32.119Z,55.42
2023-07-12T06:20:33.888Z,55.48
2023-07-12T06:23:36.429Z,55.48
2023-07-12T06:26:38.082Z,55.74
2023-07-12T06:29:46.218Z,55.60
2023-07-12T06:32:47.900Z,55.83
2023-07-12T06:35:49.654Z,55.96
2023-07-12T06:38:51.352Z,55.96
2023-07-12T06:41:53.014Z,55.78
2023-07-12T06:44:54.735Z,55.66
2023-07-12T06:47:56.547Z,55.96
2023-07-12T06:50:58.730Z,55.87
2023-07-12T06:54:00.753Z,55.99
2023-07-12T06:57:02.654Z,55.97
2023-07-12T07:00:10.084Z,55.89
2023-07-12T07:03:14.432Z,55.94
2023-07-12T07:06:18.059Z,55.85
2023-07-12T07:09:20.075Z,55.67
2023-07-12T07:12:22.195Z,55.51
2023-07-12T07:15:23.985Z,55.64
2023-07-12T07:18:26.351Z,55.69
2023-07-12T07:21:28.012Z,55.77
2023-07-12T07:24:29.913Z,55.70
2023-07-12T07:27:31.788Z,55.71
2023-07-12T07:30:33.454Z,55.73
2023-07-12T07:33:38.209Z,55.52
2023-07-12T07:36:40.085Z,55.46
2023-07-12T07:39:42.189Z,55.03
2023-07-12T07:42:49.052Z,54.44
2023-07-12T07:45:53.677Z,54.19
2023-07-12T07:48:55.544Z,53.86
2023-07-12T07:51:57.395Z,53.70
2023-07-12T07:54:59.947Z,53.58
2023-07-12T07:58:02.189Z,53.41
2023-07-12T08:01:03.798Z,53.20
2023-07-12T08:04:09.774Z,53.19
2023-07-12T08:07:12.725Z,53.28
2023-07-12T08:10:17.982Z,53.13
2023-07-12T08:13:20.069Z,53.02
2023-07-12T08:16:21.831Z,52.68
2023-07-12T08:19:23.629Z,52.68
2023-07-12T08:22:25.790Z,52.37
2023-07-12T08:25:27.581Z,52.37
2023-07-12T08:28:29.313Z,52.39
2023-07-12T08:31:31.356Z,52.29
2023-07-12T08:34:33.223Z,52.12
2023-07-12T08:37:34.983Z,52.07
2023-07-12T08:40:41.906Z,52.11
2023-07-12T08:43:44.702Z,52.09
2023-07-12T08:46:56.409Z,52.13
2023-07-12T08:49:58.717Z,52.21
2023-07-12T08:53:00.824Z,52.14
2023-07-12T08:56:05.040Z,52.20
2023-07-12T08:59:14.043Z,52.36
2023-07-12T09:02:22.713Z,52.38
2023-07-12T09:05:25.377Z,52.61
2023-07-12T09:08:36.411Z,52.58
2023-07-12T09:11:39.872Z,52.69
2023-07-12T09:14:41.629Z,52.76
2023-07-12T09:17:45.482Z,52.73
2023-07-12T09:20:51.264Z,52.93
2023-07-12T09:23:59.606Z,53.03
2023-07-12T09:27:06.674Z,53.10
2023-07-12T09:30:08.803Z,53.25
2023-07-12T09:33:19.304Z,53.27
2023-07-12T09:36:28.253Z,53.34
2023-07-12T09:39:30.124Z,53.48
2023-07-12T09:42:31.955Z,53.55
2023-07-12T09:45:36.163Z,53.56
2023-07-12T09:48:52.843Z,53.63
2023-07-12T09:52:06.372Z,53.72
2023-07-12T09:55:24.317Z,54.13
2023-07-12T09:58:36.280Z,54.38
2023-07-12T10:01:49.448Z,54.61
2023-07-12T10:04:55.957Z,55.11
2023-07-12T10:08:15.594Z,55.38
2023-07-12T10:11:27.641Z,54.89
2023-07-12T10:14:37.422Z,54.47
2023-07-12T10:17:42.904Z,53.96
2023-07-12T10:20:46.617Z,53.67
2023-07-12T10:23:58.798Z,53.47
2023-07-12T10:27:05.091Z,53.18
2023-07-12T10:30:15.478Z,52.81
2023-07-12T10:33:28.091Z,52.28
2023-07-12T10:36:30.912Z,51.74
2023-07-12T10:39:33.112Z,50.95
2023-07-12T10:42:47.357Z,50.73
2023-07-12T10:45:51.972Z,50.29
2023-07-12T10:48:55.641Z,50.35
2023-07-12T10:52:11.833Z,50.25
2023-07-12T10:55:19.653Z,49.81
2023-07-12T10:58:22.776Z,49.70
2023-07-12T11:01:46.560Z,49.62
2023-07-12T11:04:49.824Z,49.32
2023-07-12T11:07:54.674Z,49.38
2023-07-12T11:10:59.943Z,49.35
2023-07-12T11:14:25.338Z,49.01
2023-07-12T11:17:29.605Z,49.11
2023-07-12T11:21:02.496Z,49.18
2023-07-12T11:24:26.550Z,49.15
2023-07-12T11:27:38.683Z,49.18
2023-07-12T11:30:44.349Z,49.13
2023-07-12T11:34:15.471Z,49.42
2023-07-12T11:37:25.804Z,49.48
2023-07-12T11:40:36.315Z,49.49
2023-07-12T11:43:38.544Z,49.64
2023-07-12T11:46:42.402Z,49.76
2023-07-12T11:49:45.712Z,49.91
2023-07-12T11:52:48.872Z,49.97
2023-07-12T11:55:50.937Z,50.21
2023-07-12T11:58:52.922Z,50.25
2023-07-12T12:01:54.704Z,50.28
2023-07-12T12:04:59.887Z,50.24
2023-07-12T12:08:07.003Z,50.18
2023-07-12T12:11:11.679Z,50.15
2023-07-12T12:14:24.704Z,50.19
2023-07-12T12:17:36.917Z,50.45
2023-07-12T12:20:51.515Z,50.53
2023-07-12T12:23:58.608Z,50.57
2023-07-12T12:27:11.732Z,50.82
2023-07-12T12:30:29.805Z,50.24
2023-07-12T12:33:31.663Z,49.86
2023-07-12T12:36:34.013Z,49.76
2023-07-12T12:39:36.931Z,49.85
2023-07-12T12:43:02.072Z,49.78
2023-07-12T12:53:29.343Z,50.07
2023-07-12T13:05:30.692Z,50.34
2023-07-12T13:18:12.467Z,50.82
2023-07-12T13:21:19.860Z,50.61
2023-07-12T13:24:21.835Z,50.74
2023-07-12T13:27:31.098Z,50.82
2023-07-12T13:30:38.480Z,50.92
2023-07-12T13:33:40.403Z,50.84
2023-07-12T13:36:45.678Z,50.76
2023-07-12T13:39:48.060Z,50.52
2023-07-12T13:42:57.986Z,50.63
2023-07-12T13:46:01.582Z,50.57
2023-07-12T13:49:03.953Z,50.45
2023-07-12T13:52:06.249Z,50.48
2023-07-12T13:55:13.741Z,50.53
2023-07-12T13:58:15.562Z,50.70
2023-07-12T14:04:23.832Z,50.59
2023-07-12T14:10:37.021Z,50.64
2023-07-12T14:13:38.725Z,50.81
2023-07-12T14:16:40.519Z,50.75
2023-07-12T14:19:44.577Z,50.57
2023-07-12T14:22:46.402Z,50.14
2023-07-12T14:25:48.056Z,50.04
2023-07-12T14:28:55.458Z,49.99
2023-07-12T14:31:58.365Z,50.05
2023-07-12T14:35:02.070Z,50.17
2023-07-12T14:38:10.045Z,49.95
2023-07-12T14:41:26.360Z,49.87
2023-07-12T14:44:27.995Z,49.94
2023-07-12T14:47:29.613Z,50.06
2023-07-12T14:50:31.290Z,50.00
2023-07-12T14:53:33.013Z,50.04
2023-07-12T14:56:34.604Z,50.00
2023-07-12T14:59:36.515Z,49.93
2023-07-12T15:02:39.809Z,49.90
2023-07-12T15:05:41.551Z,49.84
2023-07-12T15:08:45.906Z,49.68
2023-07-12T15:12:06.874Z,49.46
2023-07-12T15:15:13.170Z,49.37
2023-07-12T15:18:18.325Z,49.45
2023-07-12T15:21:30.937Z,49.45
2023-07-12T15:24:32.624Z,49.35
2023-07-12T15:27:37.415Z,49.33
2023-07-12T15:30:40.433Z,49.42
2023-07-12T15:33:42.141Z,49.54
2023-07-12T15:36:43.811Z,49.63
2023-07-12T15:39:45.822Z,49.63
2023-07-12T15:42:48.727Z,49.81
2023-07-12T15:45:50.951Z,49.91
2023-07-12T15:48:56.992Z,49.89
2023-07-12T15:51:58.694Z,49.75
2023-07-12T15:55:00.634Z,49.60
2023-07-12T15:58:02.423Z,49.71
2023-07-12T16:01:05.429Z,49.72
2023-07-12T16:04:07.421Z,49.62
2023-07-12T16:07:12.803Z,49.50
2023-07-12T16:10:15.219Z,49.69
2023-07-12T16:13:23.476Z,49.91
2023-07-12T16:16:28.564Z,49.79
2023-07-12T16:19:30.464Z,49.75
2023-07-12T16:22:32.225Z,49.70
2023-07-12T16:25:33.837Z,49.85
2023-07-12T16:28:36.195Z,49.85
2023-07-12T16:31:52.326Z,49.97
2023-07-12T16:34:54.029Z,50.25
2023-07-12T16:37:55.796Z,50.44
2023-07-12T16:41:05.290Z,50.58
2023-07-12T16:44:17.188Z,50.62
2023-07-12T16:47:18.881Z,50.89
2023-07-12T16:50:20.553Z,51.24
2023-07-12T16:53:42.568Z,51.22
2023-07-12T16:56:44.194Z,51.40
2023-07-12T16:59:51.046Z,51.53
2023-07-12T17:02:54.063Z,51.69
2023-07-12T17:05:57.234Z,51.70
2023-07-12T17:08:58.858Z,52.29
2023-07-12T17:12:00.573Z,52.89
2023-07-12T17:15:03.447Z,53.28
2023-07-12T17:18:05.187Z,53.72
2023-07-12T17:21:16.542Z,53.64
2023-07-12T17:24:18.586Z,54.05
2023-07-12T17:27:22.588Z,54.18
2023-07-12T17:30:24.256Z,54.06
2023-07-12T17:33:28.501Z,54.23
2023-07-12T17:36:30.506Z,54.79
2023-07-12T17:39:33.101Z,55.08
2023-07-12T17:42:35.292Z,55.20
2023-07-12T17:45:36.932Z,55.43
2023-07-12T17:48:40.299Z,55.57
2023-07-12T17:51:42.169Z,55.70
2023-07-12T17:54:44.728Z,56.08
2023-07-12T17:57:46.429Z,56.28
2023-07-12T18:00:53.055Z,56.34
2023-07-12T18:03:54.819Z,56.68
2023-07-12T18:06:57.511Z,57.00
2023-07-12T18:09:59.864Z,57.05
2023-07-12T18:13:01.625Z,57.30
2023-07-12T18:16:03.473Z,57.36
2023-07-12T18:19:05.706Z,57.55
2023-07-12T18:22:19.932Z,57.61
2023-07-12T18:25:23.492Z,57.77
2023-07-12T18:28:25.363Z,58.10
2023-07-12T18:31:30.306Z,58.25
2023-07-12T18:34:32.146Z,58.40
2023-07-12T18:37:34.221Z,58.62
2023-07-12T18:40:36.782Z,58.76
2023-07-12T18:43:39.466Z,58.80
2023-07-12T18:46:45.066Z,58.91
2023-07-12T18:49:52.407Z,58.79
2023-07-12T18:52:55.503Z,59.07
2023-07-12T18:55:57.250Z,59.23
2023-07-12T18:59:00.225Z,59.46
2023-07-12T19:02:02.314Z,59.81
2023-07-12T19:05:23.124Z,59.87
2023-07-12T19:08:24.859Z,59.93
2023-07-12T19:11:35.162Z,59.95
2023-07-12T19:14:37.651Z,59.87
2023-07-12T19:17:40.509Z,59.80
2023-07-12T19:20:42.300Z,60.05
2023-07-12T19:23:43.989Z,60.09
2023-07-12T19:26:45.731Z,60.35
2023-07-12T19:29:48.567Z,60.18
2023-07-12T19:32:50.493Z,60.34
2023-07-12T19:35:52.194Z,60.56
2023-07-12T19:38:55.847Z,60.51
2023-07-12T19:41:58.490Z,60.54
2023-07-12T19:45:00.199Z,60.77
2023-07-12T19:48:01.960Z,60.75
2023-07-12T19:51:14.214Z,60.79
2023-07-12T19:54:18.229Z,60.97
2023-07-12T19:57:20.629Z,61.11
2023-07-12T20:00:24.933Z,61.32
2023-07-12T20:03:26.617Z,61.53
2023-07-12T20:06:28.900Z,61.57
2023-07-12T20:09:30.491Z,61.52
2023-07-12T20:12:32.230Z,61.60
2023-07-12T20:15:33.933Z,61.94
2023-07-12T20:18:36.709Z,61.90
2023-07-12T20:21:39.371Z,61.99
2023-07-12T20:24:41.142Z,61.98
2023-07-12T20:27:42.829Z,62.14
2023-07-12T20:30:46.086Z,62.25
2023-07-12T20:33:47.789Z,62.43
2023-07-12T20:36:52.779Z,62.41
2023-07-12T20:39:54.427Z,62.43
2023-07-12T20:42:56.119Z,62.45
2023-07-12T20:46:00.057Z,62.36
2023-07-12T20:49:03.586Z,62.65
2023-07-12T20:52:08.622Z,62.66
2023-07-12T20:55:10.267Z,62.67
2023-07-12T20:58:11.873Z,62.86
2023-07-12T21:01:17.114Z,62.92
2023-07-12T21:04:18.855Z,63.02
2023-07-12T21:07:23.536Z,62.95
2023-07-12T21:10:25.266Z,63.16
2023-07-12T21:13:28.003Z,63.16
2023-07-12T21:16:30.034Z,63.09
2023-07-12T21:19:31.777Z,63.08
2023-07-12T21:22:33.574Z,62.92
2023-07-12T21:25:35.291Z,63.03
2023-07-12T21:28:37.379Z,63.24
2023-07-12T21:31:38.975Z,63.28
2023-07-12T21:34:40.743Z,63.31
2023-07-12T21:37:42.403Z,63.51
2023-07-12T21:40:44.356Z,63.46
2023-07-12T21:43:46.190Z,63.51
2023-07-12T21:46:47.856Z,63.50
2023-07-12T21:49:49.734Z,63.59
2023-07-12T21:52:51.522Z,63.77
2023-07-12T21:55:53.186Z,63.81
2023-07-12T21:58:57.209Z,63.92
2023-07-12T22:01:58.940Z,64.18
2023-07-12T22:05:01.557Z,64.24
2023-07-12T22:08:03.417Z,64.37
2023-07-12T22:11:09.757Z,64.41
2023-07-12T22:14:11.550Z,64.58
2023-07-12T22:17:14.436Z,64.59
2023-07-12T22:20:18.736Z,64.76
2023-07-12T22:23:20.469Z,64.78
2023-07-12T22:26:28.835Z,64.96
2023-07-12T22:29:30.588Z,65.11
2023-07-12T22:32:32.254Z,65.28
2023-07-12T22:35:34.514Z,65.30
2023-07-12T22:38:36.947Z,65.37
2023-07-12T22:41:38.652Z,65.56
2023-07-12T22:44:40.621Z,65.57
2023-07-12T22:47:43.574Z,65.66
2023-07-12T22:50:47.332Z,65.76
2023-07-12T22:53:50.036Z,65.87
2023-07-12T22:56:52.120Z,65.93
2023-07-12T22:59:53.988Z,66.01
2023-07-12T23:02:55.743Z,66.11
2023-07-12T23:05:58.259Z,66.00
2023-07-12T23:08:59.927Z,66.11
2023-07-12T23:12:07.589Z,66.25
2023-07-12T23:15:11.637Z,66.16
2023-07-12T23:18:13.488Z,65.99
2023-07-12T23:21:17.056Z,66.07
2023-07-12T23:24:19.137Z,66.10
2023-07-12T23:27:20.792Z,66.09
2023-07-12T23:30:24.040Z,66.22
2023-07-12T23:33:25.728Z,66.17
2023-07-12T23:36:28.427Z,66.09
2023-07-12T23:39:30.528Z,66.22
2023-07-12T23:42:32.094Z,66.16
2023-07-12T23:45:37.232Z,66.26
2023-07-12T23:48:38.916Z,66.29
2023-07-12T23:51:41.261Z,66.46
2023-07-12T23:54:44.766Z,66.60
2023-07-12T23:57:46.722Z,66.51
